createdAt,value
2022-10-01T07:22:07.175Z,6.43
2022-10-01T07:24:34.138Z,5.10
2022-10-01T07:27:05.042Z,5.23
2022-10-01T07:29:33.978Z,5.63
2022-10-01T07:32:01.859Z,5.00
2022-10-01T07:34:31.096Z,5.87
2022-10-01T07:36:58.001Z,5.07
2022-10-01T07:39:24.850Z,5.37
2022-10-01T07:41:51.876Z,6.70
2022-10-01T07:44:19.554Z,7.13
2022-10-01T07:46:47.259Z,6.90
2022-10-01T07:49:15.040Z,5.83
2022-10-01T07:51:43.947Z,5.07
2022-10-01T07:54:10.956Z,4.60
2022-10-01T07:56:38.061Z,5.23
2022-10-01T07:59:04.924Z,4.90
2022-10-01T08:01:32.500Z,5.20
2022-10-01T08:03:59.705Z,6.03
2022-10-01T08:06:26.558Z,6.07
2022-10-01T08:08:53.415Z,6.80
2022-10-01T08:11:20.239Z,6.33
2022-10-01T08:13:47.424Z,5.00
2022-10-01T08:16:14.576Z,4.33
2022-10-01T08:18:41.383Z,6.43
2022-10-01T08:21:08.625Z,5.53
2022-10-01T08:23:36.379Z,5.83
2022-10-01T08:26:07.474Z,4.87
2022-10-01T08:28:35.321Z,4.70
2022-10-01T08:31:07.577Z,5.13
2022-10-01T08:33:34.949Z,4.30
2022-10-01T08:36:08.365Z,5.07
2022-10-01T08:38:36.644Z,4.53
2022-10-01T08:41:35.474Z,4.30
2022-10-01T08:44:04.428Z,5.13
2022-10-01T08:46:35.105Z,6.80
2022-10-01T08:49:25.519Z,4.60
2022-10-01T08:51:55.507Z,5.07
2022-10-01T08:54:42.938Z,4.93
2022-10-01T08:57:17.811Z,5.60
2022-10-01T09:00:00.929Z,4.87
2022-10-01T09:02:42.177Z,5.50
2022-10-01T09:05:30.426Z,5.30
2022-10-01T09:08:43.513Z,6.30
2022-10-01T09:11:42.454Z,5.00
2022-10-01T09:14:32.571Z,6.07
2022-10-01T09:17:13.199Z,4.97
2022-10-01T09:19:57.677Z,5.07
2022-10-01T09:22:49.129Z,5.13
2022-10-01T09:25:24.620Z,5.60
2022-10-01T09:27:53.033Z,4.33
2022-10-01T09:30:22.257Z,4.50
2022-10-01T09:32:56.084Z,4.03
2022-10-01T09:35:54.833Z,4.30
2022-10-01T09:38:39.353Z,5.03
2022-10-01T09:41:10.987Z,3.93
2022-10-01T09:43:40.620Z,4.50
2022-10-01T09:46:13.631Z,3.93
2022-10-01T09:48:46.331Z,3.70
2022-10-01T09:51:16.263Z,4.97
2022-10-01T09:54:03.386Z,4.20
2022-10-01T09:56:35.099Z,4.20
2022-10-01T09:59:06.908Z,5.03
2022-10-01T10:01:42.300Z,5.70
2022-10-01T10:04:09.711Z,6.83
2022-10-01T10:06:37.734Z,7.10
2022-10-01T10:09:05.194Z,7.70
2022-10-01T10:11:33.955Z,8.23
2022-10-01T10:14:03.567Z,7.80
2022-10-01T10:16:37.115Z,5.70
2022-10-01T10:19:16.482Z,7.10
2022-10-01T10:22:09.079Z,7.37
2022-10-01T10:24:36.031Z,6.70
2022-10-01T10:27:20.206Z,6.20
2022-10-01T10:29:47.046Z,6.37
2022-10-01T10:32:26.526Z,5.30
2022-10-01T10:35:02.665Z,5.47
2022-10-01T10:37:34.281Z,4.40
2022-10-01T10:40:01.655Z,4.03
2022-10-01T10:42:28.926Z,3.83
2022-10-01T10:45:00.806Z,3.83
2022-10-01T10:47:29.137Z,3.70
2022-10-01T10:50:02.332Z,3.67
2022-10-01T10:52:36.118Z,7.07
2022-10-01T10:55:19.406Z,6.37
2022-10-01T10:57:47.060Z,8.07
2022-10-01T11:00:17.165Z,4.10
2022-10-01T11:03:14.469Z,8.87
2022-10-01T11:05:42.891Z,9.33
2022-10-01T11:08:20.195Z,7.67
2022-10-01T11:11:02.186Z,6.53
2022-10-01T11:13:59.593Z,6.73
2022-10-01T11:16:47.422Z,4.00
2022-10-01T11:19:46.925Z,3.57
2022-10-01T11:22:41.785Z,3.33
2022-10-01T11:25:17.522Z,3.60
2022-10-01T11:27:53.941Z,3.10
2022-10-01T11:30:53.597Z,4.17
2022-10-01T11:33:20.351Z,4.07
2022-10-01T11:36:03.168Z,5.40
2022-10-01T11:38:48.221Z,4.17
2022-10-01T11:41:33.800Z,4.43
2022-10-01T11:44:13.931Z,4.33
2022-10-01T11:46:58.444Z,6.37
2022-10-01T11:49:36.129Z,4.87
2022-10-01T11:52:08.552Z,4.33
2022-10-01T11:54:40.654Z,4.23
2022-10-01T11:57:33.024Z,4.40
2022-10-01T12:00:09.260Z,4.00
2022-10-01T12:05:46.100Z,2.67
2022-10-01T12:08:25.762Z,4.00
2022-10-01T12:11:16.126Z,3.57
2022-10-01T12:13:53.121Z,3.13
2022-10-01T12:16:40.169Z,4.37
2022-10-01T12:19:46.441Z,3.87
2022-10-01T12:22:24.702Z,2.43
2022-10-01T12:24:52.493Z,2.07
2022-10-01T12:27:36.281Z,3.03
2022-10-01T12:30:29.210Z,3.27
2022-10-01T12:33:24.609Z,1.87
2022-10-01T12:36:08.639Z,2.07
2022-10-01T12:39:11.560Z,2.43
2022-10-01T12:42:06.778Z,1.60
2022-10-01T12:45:12.719Z,3.93
2022-10-01T12:47:59.809Z,1.70
2022-10-01T12:50:57.291Z,1.60
2022-10-01T12:53:45.515Z,3.30
2022-10-01T12:56:57.341Z,1.70
2022-10-01T12:59:40.885Z,1.83
2022-10-01T13:02:35.496Z,1.60
2022-10-01T13:05:08.225Z,1.43
2022-10-01T13:07:59.232Z,1.30
2022-10-01T13:10:35.627Z,1.33
2022-10-01T13:13:28.187Z,2.83
2022-10-01T13:16:17.986Z,2.37
2022-10-01T13:19:00.144Z,1.97
2022-10-01T13:21:32.956Z,2.37
2022-10-01T13:24:26.836Z,3.73
2022-10-01T13:27:04.620Z,7.97
2022-10-01T13:29:46.779Z,1.90
2022-10-01T13:32:33.282Z,2.00
2022-10-01T13:35:40.241Z,2.30
2022-10-01T13:38:29.112Z,2.00
2022-10-01T13:41:04.624Z,1.87
2022-10-01T13:43:34.184Z,2.20
2022-10-01T13:46:10.359Z,1.90
2022-10-01T13:48:45.242Z,2.10
2022-10-01T13:51:14.064Z,2.37
2022-10-01T13:53:43.940Z,2.10
2022-10-01T13:56:13.136Z,2.37
2022-10-01T13:58:45.426Z,2.73
2022-10-01T14:01:23.651Z,2.70
2022-10-01T14:03:58.971Z,3.07
2022-10-01T14:06:37.400Z,2.70
2022-10-01T14:09:14.966Z,2.20
2022-10-01T14:12:05.908Z,2.43
2022-10-01T14:15:07.355Z,3.37
2022-10-01T14:17:36.190Z,2.23
2022-10-01T14:20:03.850Z,1.87
2022-10-01T14:22:43.983Z,2.10
2022-10-01T14:25:32.557Z,3.33
2022-10-01T14:28:34.522Z,2.33
2022-10-01T14:31:12.901Z,2.50
2022-10-01T14:34:03.583Z,3.33
2022-10-01T14:36:35.269Z,1.60
2022-10-01T14:39:15.954Z,2.07
2022-10-01T14:41:44.133Z,5.00
2022-10-01T14:44:31.980Z,2.37
2022-10-01T14:47:00.046Z,2.17
2022-10-01T14:49:29.663Z,1.77
2022-10-01T14:52:31.325Z,1.70
2022-10-01T14:55:02.761Z,2.20
2022-10-01T14:57:37.597Z,1.93
2022-10-01T15:00:28.394Z,2.73
2022-10-01T15:03:15.623Z,1.27
2022-10-01T15:05:44.317Z,1.60
2022-10-01T15:08:17.507Z,2.53
2022-10-01T15:11:00.994Z,1.70
2022-10-01T15:13:32.623Z,1.60
2022-10-01T15:16:00.077Z,3.60
2022-10-01T15:18:27.374Z,2.80
2022-10-01T15:21:00.680Z,1.60
2022-10-01T15:23:28.930Z,2.80
2022-10-01T15:25:58.054Z,1.40
2022-10-01T15:28:34.072Z,3.13
2022-10-01T15:31:03.407Z,4.37
2022-10-01T15:33:40.391Z,2.73
2022-10-01T15:36:18.440Z,3.43
2022-10-01T15:38:46.726Z,3.17
2022-10-01T15:41:33.281Z,3.23
2022-10-01T15:44:05.458Z,3.20
2022-10-01T15:46:35.381Z,2.10
2022-10-01T15:49:14.731Z,2.43
2022-10-01T15:52:15.595Z,1.87
2022-10-01T15:54:44.743Z,2.47
2022-10-01T15:57:23.493Z,2.40
2022-10-01T15:59:54.109Z,2.83
2022-10-01T16:02:25.451Z,3.27
2022-10-01T16:04:56.631Z,4.67
2022-10-01T16:07:29.725Z,3.77
2022-10-01T16:09:58.973Z,4.07
2022-10-01T16:12:30.230Z,3.23
2022-10-01T16:15:02.264Z,3.23
2022-10-01T16:17:31.831Z,1.87
2022-10-01T16:20:01.924Z,3.37
2022-10-01T16:22:33.277Z,3.00
2022-10-01T16:25:03.730Z,2.13
2022-10-01T16:27:49.751Z,3.70
2022-10-01T16:30:28.130Z,2.70
2022-10-01T16:32:55.796Z,2.60
2022-10-01T16:35:29.668Z,3.13
2022-10-01T16:37:58.375Z,2.53
2022-10-01T16:40:28.202Z,2.97
2022-10-01T16:42:55.515Z,2.57
2022-10-01T16:45:25.031Z,4.50
2022-10-01T16:47:53.022Z,2.07
2022-10-01T16:50:21.876Z,2.10
2022-10-01T16:52:52.434Z,3.23
2022-10-01T16:55:26.006Z,3.70
2022-10-01T16:57:56.637Z,3.23
2022-10-01T17:00:25.859Z,2.17
2022-10-01T17:02:54.149Z,2.33
2022-10-01T17:05:26.963Z,2.27
2022-10-01T17:07:54.703Z,2.10
2022-10-01T17:10:22.824Z,2.00
2022-10-01T17:12:50.122Z,1.40
2022-10-01T17:15:26.356Z,1.60
2022-10-01T17:17:57.763Z,1.30
2022-10-01T17:20:28.398Z,1.70
2022-10-01T17:22:56.010Z,3.53
2022-10-01T17:25:25.522Z,4.23
2022-10-01T17:27:52.372Z,8.47
2022-10-01T17:30:19.223Z,7.10
2022-10-01T17:32:46.644Z,6.10
2022-10-01T17:35:14.934Z,4.97
2022-10-01T17:37:42.728Z,3.73
2022-10-01T17:40:10.959Z,2.77
2022-10-01T17:42:38.343Z,3.07
2022-10-01T17:45:08.105Z,2.23
2022-10-01T17:47:35.127Z,2.40
2022-10-01T17:50:03.025Z,2.03
2022-10-01T17:52:32.155Z,2.00
2022-10-01T17:54:58.974Z,2.00
2022-10-01T17:57:25.907Z,2.80
2022-10-01T17:59:52.839Z,1.47
2022-10-01T18:02:40.567Z,1.50
2022-10-01T18:05:09.441Z,2.33
2022-10-01T18:07:39.045Z,2.40
2022-10-01T18:10:07.881Z,3.30
2022-10-01T18:12:34.919Z,3.83
2022-10-01T18:15:02.088Z,2.40
2022-10-01T18:17:29.322Z,3.17
2022-10-01T18:19:57.131Z,3.13
2022-10-01T18:22:24.305Z,1.70
2022-10-01T18:24:51.105Z,1.90
2022-10-01T18:27:17.955Z,2.70
2022-10-01T18:29:44.724Z,1.97
2022-10-01T18:32:20.021Z,1.50
2022-10-01T18:34:50.553Z,2.90
2022-10-01T18:37:39.204Z,2.07
2022-10-01T18:40:19.574Z,3.10
2022-10-01T18:43:04.501Z,4.90
2022-10-01T18:45:49.535Z,2.83
2022-10-01T18:48:35.158Z,2.37
2022-10-01T18:51:18.500Z,2.10
2022-10-01T18:54:03.510Z,2.57
2022-10-01T18:56:36.018Z,2.40
2022-10-01T18:59:22.033Z,3.77
2022-10-01T19:02:40.423Z,2.47
2022-10-01T19:05:36.444Z,2.07
2022-10-01T19:08:36.085Z,2.20
2022-10-01T19:11:30.126Z,2.50
2022-10-01T19:14:22.193Z,2.30
2022-10-01T19:17:03.127Z,3.47
2022-10-01T19:19:52.690Z,1.97
2022-10-01T19:22:39.628Z,2.83
2022-10-01T19:25:36.265Z,2.20
2022-10-01T19:28:12.145Z,2.00
2022-10-01T19:30:45.639Z,1.43
2022-10-01T19:33:14.988Z,2.70
2022-10-01T19:35:54.152Z,2.10
2022-10-01T19:38:52.418Z,2.90
2022-10-01T19:41:43.279Z,1.77
2022-10-01T19:44:16.855Z,1.70
2022-10-01T19:46:47.559Z,3.83
2022-10-01T19:49:23.527Z,3.13
2022-10-01T19:52:02.480Z,2.30
2022-10-01T19:54:36.285Z,6.57
2022-10-01T19:57:17.080Z,5.87
2022-10-01T19:59:44.063Z,9.17
2022-10-01T20:02:33.719Z,15.40
2022-10-01T20:05:13.300Z,15.67
2022-10-01T20:08:05.316Z,14.23
2022-10-01T20:10:47.439Z,12.90
2022-10-01T22:19:11.301Z,5.30
2022-10-01T22:21:44.544Z,4.63
2022-10-01T22:24:20.791Z,9.50
2022-10-01T22:27:06.202Z,7.07
2022-10-01T22:29:40.328Z,8.50
2022-10-01T22:32:13.686Z,8.73
2022-10-01T22:34:56.182Z,8.77
2022-10-01T22:37:33.167Z,9.37
2022-10-01T22:40:15.006Z,7.93
2022-10-01T22:42:48.819Z,8.17
2022-10-01T22:45:41.048Z,8.67
2022-10-01T22:48:16.234Z,10.23
2022-10-01T22:50:55.951Z,13.83
2022-10-01T22:53:42.391Z,17.83
2022-10-01T22:56:14.091Z,10.73
2022-10-01T22:58:55.790Z,12.00
2022-10-01T23:01:53.336Z,10.23
2022-10-01T23:04:29.209Z,10.50
2022-10-01T23:07:13.055Z,11.10
2022-10-01T23:10:01.230Z,9.00
2022-10-01T23:12:47.277Z,7.93
2022-10-01T23:15:25.085Z,6.00
2022-10-01T23:18:04.859Z,6.33
2022-10-01T23:20:36.487Z,6.60
2022-10-01T23:23:16.753Z,5.07
2022-10-01T23:25:58.642Z,6.67
2022-10-01T23:28:28.368Z,5.20
2022-10-01T23:31:37.639Z,4.90
2022-10-01T23:34:16.700Z,5.80
2022-10-01T23:37:08.137Z,7.03
2022-10-01T23:39:41.059Z,4.57
2022-10-01T23:42:28.573Z,5.13
2022-10-01T23:45:14.446Z,5.67
2022-10-01T23:48:03.495Z,5.70
2022-10-01T23:51:06.314Z,3.77
2022-10-01T23:53:43.982Z,5.50
2022-10-01T23:56:35.614Z,4.60
2022-10-01T23:59:26.341Z,5.60
